sensor_id;sensor_type;location;lat;lon;timestamp;temperature;humidity
69770;SHT30;57282;52.514;13.458;2023-03-14T00:02:21;18.00;55.80
69770;SHT30;57282;52.514;13.458;2023-03-14T00:04:47;17.83;56.17
69770;SHT30;57282;52.514;13.458;2023-03-14T00:07:14;17.97;56.44
69770;SHT30;57282;52.514;13.458;2023-03-14T00:09:41;18.13;56.67
69770;SHT30;57282;52.514;13.458;2023-03-14T00:12:08;18.26;56.55
69770;SHT30;57282;52.514;13.458;2023-03-14T00:14:37;18.34;56.38
69770;SHT30;57282;52.514;13.458;2023-03-14T00:17:04;18.40;56.31
69770;SHT30;57282;52.514;13.458;2023-03-14T00:19:30;18.40;56.18
69770;SHT30;57282;52.514;13.458;2023-03-14T00:21:57;18.40;56.18
69770;SHT30;57282;52.514;13.458;2023-03-14T00:24:24;18.43;56.21
69770;SHT30;57282;52.514;13.458;2023-03-14T00:26:51;18.45;56.15
69770;SHT30;57282;52.514;13.458;2023-03-14T00:29:18;18.47;56.21
69770;SHT30;57282;52.514;13.458;2023-03-14T00:31:46;18.45;56.22
69770;SHT30;57282;52.514;13.458;2023-03-14T00:34:13;18.45;56.16
69770;SHT30;57282;52.514;13.458;2023-03-14T00:36:40;18.45;56.18
69770;SHT30;57282;52.514;13.458;2023-03-14T00:39:07;18.47;56.23
69770;SHT30;57282;52.514;13.458;2023-03-14T00:41:33;18.47;56.29
69770;SHT30;57282;52.514;13.458;2023-03-14T00:44:00;18.45;56.33
69770;SHT30;57282;52.514;13.458;2023-03-14T00:46:27;18.47;56.40
69770;SHT30;57282;52.514;13.458;2023-03-14T00:48:55;18.44;56.39
69770;SHT30;57282;52.514;13.458;2023-03-14T00:51:22;18.45;56.39
69770;SHT30;57282;52.514;13.458;2023-03-14T00:53:49;18.44;56.44
69770;SHT30;57282;52.514;13.458;2023-03-14T00:56:16;18.47;56.55
69770;SHT30;57282;52.514;13.458;2023-03-14T00:58:44;18.45;56.59
69770;SHT30;57282;52.514;13.458;2023-03-14T01:01:13;18.45;56.63
69770;SHT30;57282;52.514;13.458;2023-03-14T01:03:40;18.45;56.72
69770;SHT30;57282;52.514;13.458;2023-03-14T01:06:11;18.45;56.75
69770;SHT30;57282;52.514;13.458;2023-03-14T01:08:38;18.45;56.76
69770;SHT30;57282;52.514;13.458;2023-03-14T01:11:07;18.48;56.75
69770;SHT30;57282;52.514;13.458;2023-03-14T01:13:35;18.47;56.82
69770;SHT30;57282;52.514;13.458;2023-03-14T01:16:03;18.44;56.86
69770;SHT30;57282;52.514;13.458;2023-03-14T01:18:30;18.47;56.88
69770;SHT30;57282;52.514;13.458;2023-03-14T01:20:58;18.47;56.97
69770;SHT30;57282;52.514;13.458;2023-03-14T01:23:26;18.49;57.04
69770;SHT30;57282;52.514;13.458;2023-03-14T01:25:53;18.47;57.08
69770;SHT30;57282;52.514;13.458;2023-03-14T01:28:20;18.49;57.09
69770;SHT30;57282;52.514;13.458;2023-03-14T01:30:47;18.48;57.10
69770;SHT30;57282;52.514;13.458;2023-03-14T01:33:14;18.47;57.17
69770;SHT30;57282;52.514;13.458;2023-03-14T01:35:41;18.48;57.18
69770;SHT30;57282;52.514;13.458;2023-03-14T01:38:07;18.47;57.24
69770;SHT30;57282;52.514;13.458;2023-03-14T01:40:41;18.48;57.23
69770;SHT30;57282;52.514;13.458;2023-03-14T01:43:14;18.48;57.31
69770;SHT30;57282;52.514;13.458;2023-03-14T01:46:14;18.48;57.23
69770;SHT30;57282;52.514;13.458;2023-03-14T01:48:48;18.51;57.38
69770;SHT30;57282;52.514;13.458;2023-03-14T01:51:20;18.47;57.37
69770;SHT30;57282;52.514;13.458;2023-03-14T01:53:49;18.48;57.49
69770;SHT30;57282;52.514;13.458;2023-03-14T01:56:18;18.48;57.45
69770;SHT30;57282;52.514;13.458;2023-03-14T01:58:48;18.48;57.47
69770;SHT30;57282;52.514;13.458;2023-03-14T02:01:20;18.48;57.64
69770;SHT30;57282;52.514;13.458;2023-03-14T02:03:50;18.48;57.64
69770;SHT30;57282;52.514;13.458;2023-03-14T02:06:21;18.49;57.67
69770;SHT30;57282;52.514;13.458;2023-03-14T02:08:50;18.49;57.74
69770;SHT30;57282;52.514;13.458;2023-03-14T02:11:18;18.48;57.66
69770;SHT30;57282;52.514;13.458;2023-03-14T02:13:45;18.48;57.76
69770;SHT30;57282;52.514;13.458;2023-03-14T02:16:12;18.47;57.81
69770;SHT30;57282;52.514;13.458;2023-03-14T02:18:40;18.48;57.79
69770;SHT30;57282;52.514;13.458;2023-03-14T02:21:13;18.47;57.82
69770;SHT30;57282;52.514;13.458;2023-03-14T02:23:53;18.48;57.84
69770;SHT30;57282;52.514;13.458;2023-03-14T02:26:27;18.49;57.90
69770;SHT30;57282;52.514;13.458;2023-03-14T02:28:57;18.45;57.88
69770;SHT30;57282;52.514;13.458;2023-03-14T02:31:24;18.47;57.99
69770;SHT30;57282;52.514;13.458;2023-03-14T02:33:51;18.47;57.95
69770;SHT30;57282;52.514;13.458;2023-03-14T02:36:19;18.47;57.96
69770;SHT30;57282;52.514;13.458;2023-03-14T02:38:50;18.48;57.98
69770;SHT30;57282;52.514;13.458;2023-03-14T02:41:18;18.48;58.04
69770;SHT30;57282;52.514;13.458;2023-03-14T02:43:45;18.45;58.06
69770;SHT30;57282;52.514;13.458;2023-03-14T02:46:16;18.45;58.06
69770;SHT30;57282;52.514;13.458;2023-03-14T02:48:46;18.47;58.09
69770;SHT30;57282;52.514;13.458;2023-03-14T02:51:15;18.48;58.07
69770;SHT30;57282;52.514;13.458;2023-03-14T02:53:42;18.48;58.12
69770;SHT30;57282;52.514;13.458;2023-03-14T02:56:09;18.49;58.19
69770;SHT30;57282;52.514;13.458;2023-03-14T02:58:36;18.47;58.22
69770;SHT30;57282;52.514;13.458;2023-03-14T03:01:04;18.48;58.24
69770;SHT30;57282;52.514;13.458;2023-03-14T03:03:32;18.48;58.28
69770;SHT30;57282;52.514;13.458;2023-03-14T03:05:59;18.47;58.29
69770;SHT30;57282;52.514;13.458;2023-03-14T03:08:27;18.48;58.30
69770;SHT30;57282;52.514;13.458;2023-03-14T03:10:54;18.47;58.34
69770;SHT30;57282;52.514;13.458;2023-03-14T03:13:20;18.45;58.36
69770;SHT30;57282;52.514;13.458;2023-03-14T03:15:47;18.48;58.32
69770;SHT30;57282;52.514;13.458;2023-03-14T03:18:14;18.48;58.48
69770;SHT30;57282;52.514;13.458;2023-03-14T03:20:43;18.47;58.51
69770;SHT30;57282;52.514;13.458;2023-03-14T03:23:09;18.47;58.53
69770;SHT30;57282;52.514;13.458;2023-03-14T03:25:36;18.48;58.48
69770;SHT30;57282;52.514;13.458;2023-03-14T03:28:03;18.45;58.58
69770;SHT30;57282;52.514;13.458;2023-03-14T03:30:33;18.47;58.58
69770;SHT30;57282;52.514;13.458;2023-03-14T03:33:03;18.47;58.62
69770;SHT30;57282;52.514;13.458;2023-03-14T03:35:30;18.47;58.58
69770;SHT30;57282;52.514;13.458;2023-03-14T03:37:58;18.48;58.71
69770;SHT30;57282;52.514;13.458;2023-03-14T03:40:25;18.45;58.70
69770;SHT30;57282;52.514;13.458;2023-03-14T03:42:52;18.48;58.70
69770;SHT30;57282;52.514;13.458;2023-03-14T03:45:19;18.47;58.67
69770;SHT30;57282;52.514;13.458;2023-03-14T03:47:46;18.48;58.74
69770;SHT30;57282;52.514;13.458;2023-03-14T03:50:13;18.45;58.75
69770;SHT30;57282;52.514;13.458;2023-03-14T03:52:40;18.47;58.76
69770;SHT30;57282;52.514;13.458;2023-03-14T03:55:09;18.43;58.85
69770;SHT30;57282;52.514;13.458;2023-03-14T03:57:35;18.47;58.81
69770;SHT30;57282;52.514;13.458;2023-03-14T04:00:04;18.47;58.86
69770;SHT30;57282;52.514;13.458;2023-03-14T04:02:32;18.47;58.93
69770;SHT30;57282;52.514;13.458;2023-03-14T04:04:59;18.48;58.83
69770;SHT30;57282;52.514;13.458;2023-03-14T04:07:26;18.47;58.84
69770;SHT30;57282;52.514;13.458;2023-03-14T04:09:52;18.45;58.95
69770;SHT30;57282;52.514;13.458;2023-03-14T04:12:21;18.48;58.91
69770;SHT30;57282;52.514;13.458;2023-03-14T04:14:47;18.47;58.95
69770;SHT30;57282;52.514;13.458;2023-03-14T04:17:14;18.47;58.89
69770;SHT30;57282;52.514;13.458;2023-03-14T04:19:41;18.47;58.99
69770;SHT30;57282;52.514;13.458;2023-03-14T04:22:08;18.47;59.09
69770;SHT30;57282;52.514;13.458;2023-03-14T04:24:35;18.47;59.08
69770;SHT30;57282;52.514;13.458;2023-03-14T04:27:02;18.47;59.22
69770;SHT30;57282;52.514;13.458;2023-03-14T04:29:30;18.47;59.18
69770;SHT30;57282;52.514;13.458;2023-03-14T04:31:57;18.47;59.20
69770;SHT30;57282;52.514;13.458;2023-03-14T04:34:24;18.47;59.19
69770;SHT30;57282;52.514;13.458;2023-03-14T04:36:50;18.45;59.21
69770;SHT30;57282;52.514;13.458;2023-03-14T04:39:17;18.47;59.26
69770;SHT30;57282;52.514;13.458;2023-03-14T04:41:44;18.47;59.28
69770;SHT30;57282;52.514;13.458;2023-03-14T04:44:12;18.45;59.30
69770;SHT30;57282;52.514;13.458;2023-03-14T04:46:40;18.44;59.34
69770;SHT30;57282;52.514;13.458;2023-03-14T04:49:07;18.47;59.26
69770;SHT30;57282;52.514;13.458;2023-03-14T04:51:34;18.47;59.25
69770;SHT30;57282;52.514;13.458;2023-03-14T04:54:01;18.45;59.33
69770;SHT30;57282;52.514;13.458;2023-03-14T04:56:27;18.47;59.31
69770;SHT30;57282;52.514;13.458;2023-03-14T04:58:54;18.48;59.27
69770;SHT30;57282;52.514;13.458;2023-03-14T05:01:21;18.44;59.35
69770;SHT30;57282;52.514;13.458;2023-03-14T05:03:50;18.45;59.36
69770;SHT30;57282;52.514;13.458;2023-03-14T05:06:17;18.47;59.33
69770;SHT30;57282;52.514;13.458;2023-03-14T05:08:43;18.47;59.36
69770;SHT30;57282;52.514;13.458;2023-03-14T05:11:11;18.45;59.35
69770;SHT30;57282;52.514;13.458;2023-03-14T05:13:38;18.45;59.34
69770;SHT30;57282;52.514;13.458;2023-03-14T05:16:06;18.47;59.32
69770;SHT30;57282;52.514;13.458;2023-03-14T05:18:33;18.47;59.29
69770;SHT30;57282;52.514;13.458;2023-03-14T05:21:02;18.44;59.33
69770;SHT30;57282;52.514;13.458;2023-03-14T05:23:29;18.47;59.28
69770;SHT30;57282;52.514;13.458;2023-03-14T05:25:56;18.44;59.29
69770;SHT30;57282;52.514;13.458;2023-03-14T05:28:23;18.44;59.26
69770;SHT30;57282;52.514;13.458;2023-03-14T05:30:49;18.44;59.32
69770;SHT30;57282;52.514;13.458;2023-03-14T05:33:16;18.44;59.30
69770;SHT30;57282;52.514;13.458;2023-03-14T05:35:43;18.44;59.27
69770;SHT30;57282;52.514;13.458;2023-03-14T05:38:11;18.45;59.23
69770;SHT30;57282;52.514;13.458;2023-03-14T05:40:38;18.43;59.27
69770;SHT30;57282;52.514;13.458;2023-03-14T05:43:05;18.44;59.20
69770;SHT30;57282;52.514;13.458;2023-03-14T05:45:34;18.45;59.17
69770;SHT30;57282;52.514;13.458;2023-03-14T05:48:01;18.44;59.19
69770;SHT30;57282;52.514;13.458;2023-03-14T05:50:28;18.44;59.15
69770;SHT30;57282;52.514;13.458;2023-03-14T05:52:54;18.44;59.18
69770;SHT30;57282;52.514;13.458;2023-03-14T05:55:23;18.44;59.16
69770;SHT30;57282;52.514;13.458;2023-03-14T05:57:49;18.44;59.15
69770;SHT30;57282;52.514;13.458;2023-03-14T06:00:17;18.45;59.19
69770;SHT30;57282;52.514;13.458;2023-03-14T06:02:44;18.44;59.19
69770;SHT30;57282;52.514;13.458;2023-03-14T06:05:11;18.43;59.20
69770;SHT30;57282;52.514;13.458;2023-03-14T06:07:38;18.43;59.20
69770;SHT30;57282;52.514;13.458;2023-03-14T06:10:06;18.43;59.24
69770;SHT30;57282;52.514;13.458;2023-03-14T06:12:34;18.45;59.22
69770;SHT30;57282;52.514;13.458;2023-03-14T06:15:01;18.45;59.24
69770;SHT30;57282;52.514;13.458;2023-03-14T06:17:28;18.43;59.24
69770;SHT30;57282;52.514;13.458;2023-03-14T06:19:55;18.41;59.32
69770;SHT30;57282;52.514;13.458;2023-03-14T06:22:22;18.44;59.28
69770;SHT30;57282;52.514;13.458;2023-03-14T06:24:49;18.43;59.30
69770;SHT30;57282;52.514;13.458;2023-03-14T06:27:16;18.44;59.23
69770;SHT30;57282;52.514;13.458;2023-03-14T06:29:44;18.43;59.25
69770;SHT30;57282;52.514;13.458;2023-03-14T06:32:11;18.45;59.28
69770;SHT30;57282;52.514;13.458;2023-03-14T06:34:38;18.45;59.30
69770;SHT30;57282;52.514;13.458;2023-03-14T06:37:06;18.45;59.35
69770;SHT30;57282;52.514;13.458;2023-03-14T06:39:33;18.45;59.37
69770;SHT30;57282;52.514;13.458;2023-03-14T06:42:00;18.47;59.34
69770;SHT30;57282;52.514;13.458;2023-03-14T06:44:27;18.48;59.39
69770;SHT30;57282;52.514;13.458;2023-03-14T06:46:55;18.43;59.38
69770;SHT30;57282;52.514;13.458;2023-03-14T06:49:22;18.44;59.37
69770;SHT30;57282;52.514;13.458;2023-03-14T06:51:49;18.44;59.38
69770;SHT30;57282;52.514;13.458;2023-03-14T06:54:15;18.47;59.31
69770;SHT30;57282;52.514;13.458;2023-03-14T06:56:42;18.45;59.43
69770;SHT30;57282;52.514;13.458;2023-03-14T06:59:09;18.45;59.46
69770;SHT30;57282;52.514;13.458;2023-03-14T07:01:36;18.45;59.47
69770;SHT30;57282;52.514;13.458;2023-03-14T07:04:04;18.48;59.42
69770;SHT30;57282;52.514;13.458;2023-03-14T07:06:32;18.45;59.48
69770;SHT30;57282;52.514;13.458;2023-03-14T07:08:59;18.48;59.40
69770;SHT30;57282;52.514;13.458;2023-03-14T07:11:26;18.47;59.40
69770;SHT30;57282;52.514;13.458;2023-03-14T07:13:53;18.47;59.41
69770;SHT30;57282;52.514;13.458;2023-03-14T07:16:20;18.47;59.46
69770;SHT30;57282;52.514;13.458;2023-03-14T07:18:47;18.48;59.44
69770;SHT30;57282;52.514;13.458;2023-03-14T07:21:16;18.52;59.33
69770;SHT30;57282;52.514;13.458;2023-03-14T07:23:43;18.59;59.68
69770;SHT30;57282;52.514;13.458;2023-03-14T07:26:10;17.93;55.30
69770;SHT30;57282;52.514;13.458;2023-03-14T07:28:37;17.53;55.06
69770;SHT30;57282;52.514;13.458;2023-03-14T07:31:04;17.20;55.29
69770;SHT30;57282;52.514;13.458;2023-03-14T07:33:31;17.07;55.32
69770;SHT30;57282;52.514;13.458;2023-03-14T07:35:58;17.03;55.37
69770;SHT30;57282;52.514;13.458;2023-03-14T07:38:27;16.93;55.30
69770;SHT30;57282;52.514;13.458;2023-03-14T07:40:58;16.79;55.36
69770;SHT30;57282;52.514;13.458;2023-03-14T07:43:25;16.94;55.65
69770;SHT30;57282;52.514;13.458;2023-03-14T07:45:52;16.90;54.93
69770;SHT30;57282;52.514;13.458;2023-03-14T07:48:19;16.90;55.41
69770;SHT30;57282;52.514;13.458;2023-03-14T07:50:48;16.93;55.06
69770;SHT30;57282;52.514;13.458;2023-03-14T07:53:15;16.94;54.96
69770;SHT30;57282;52.514;13.458;2023-03-14T07:55:44;16.91;55.12
69770;SHT30;57282;52.514;13.458;2023-03-14T07:58:11;16.97;54.98
69770;SHT30;57282;52.514;13.458;2023-03-14T08:00:38;17.00;55.09
69770;SHT30;57282;52.514;13.458;2023-03-14T08:03:05;17.32;55.86
69770;SHT30;57282;52.514;13.458;2023-03-14T08:05:34;17.52;56.06
69770;SHT30;57282;52.514;13.458;2023-03-14T08:08:01;17.68;56.14
69770;SHT30;57282;52.514;13.458;2023-03-14T08:10:28;17.76;56.03
69770;SHT30;57282;52.514;13.458;2023-03-14T08:12:57;17.83;55.97
69770;SHT30;57282;52.514;13.458;2023-03-14T08:15:25;17.89;55.95
69770;SHT30;57282;52.514;13.458;2023-03-14T08:17:52;17.97;55.93
69770;SHT30;57282;52.514;13.458;2023-03-14T08:20:20;18.00;55.72
69770;SHT30;57282;52.514;13.458;2023-03-14T08:22:47;18.06;55.81
69770;SHT30;57282;52.514;13.458;2023-03-14T08:25:14;18.09;55.91
69770;SHT30;57282;52.514;13.458;2023-03-14T08:27:42;18.11;56.05
69770;SHT30;57282;52.514;13.458;2023-03-14T08:30:11;18.16;56.02
69770;SHT30;57282;52.514;13.458;2023-03-14T08:32:39;18.21;56.07
69770;SHT30;57282;52.514;13.458;2023-03-14T08:35:06;17.79;55.36
69770;SHT30;57282;52.514;13.458;2023-03-14T08:37:34;17.34;54.48
69770;SHT30;57282;52.514;13.458;2023-03-14T08:40:02;17.13;55.21
69770;SHT30;57282;52.514;13.458;2023-03-14T08:42:31;16.95;55.02
69770;SHT30;57282;52.514;13.458;2023-03-14T08:44:58;16.93;55.16
69770;SHT30;57282;52.514;13.458;2023-03-14T08:47:27;16.85;55.14
69770;SHT30;57282;52.514;13.458;2023-03-14T08:49:54;16.73;55.00
69770;SHT30;57282;52.514;13.458;2023-03-14T08:52:21;16.72;55.46
69770;SHT30;57282;52.514;13.458;2023-03-14T08:54:48;17.07;55.79
69770;SHT30;57282;52.514;13.458;2023-03-14T08:57:15;17.38;55.80
69770;SHT30;57282;52.514;13.458;2023-03-14T08:59:42;17.56;57.04
69770;SHT30;57282;52.514;13.458;2023-03-14T09:02:09;17.72;56.31
69770;SHT30;57282;52.514;13.458;2023-03-14T09:04:38;17.82;55.89
69770;SHT30;57282;52.514;13.458;2023-03-14T09:07:05;17.90;55.82
69770;SHT30;57282;52.514;13.458;2023-03-14T09:09:32;18.03;56.20
69770;SHT30;57282;52.514;13.458;2023-03-14T09:11:59;18.04;56.36
69770;SHT30;57282;52.514;13.458;2023-03-14T09:14:26;18.11;55.90
69770;SHT30;57282;52.514;13.458;2023-03-14T09:16:53;18.18;56.03
69770;SHT30;57282;52.514;13.458;2023-03-14T09:19:20;18.24;56.55
69770;SHT30;57282;52.514;13.458;2023-03-14T09:21:48;18.31;56.27
69770;SHT30;57282;52.514;13.458;2023-03-14T09:24:16;18.31;56.29
69770;SHT30;57282;52.514;13.458;2023-03-14T09:26:43;18.36;56.26
69770;SHT30;57282;52.514;13.458;2023-03-14T09:29:10;18.37;56.13
69770;SHT30;57282;52.514;13.458;2023-03-14T09:31:37;18.40;56.27
69770;SHT30;57282;52.514;13.458;2023-03-14T09:34:04;18.40;56.33
69770;SHT30;57282;52.514;13.458;2023-03-14T09:36:31;18.38;56.54
69770;SHT30;57282;52.514;13.458;2023-03-14T09:38:59;18.41;56.55
69770;SHT30;57282;52.514;13.458;2023-03-14T09:41:28;18.38;56.54
69770;SHT30;57282;52.514;13.458;2023-03-14T09:44:02;18.40;56.55
69770;SHT30;57282;52.514;13.458;2023-03-14T09:46:32;18.41;56.60
69770;SHT30;57282;52.514;13.458;2023-03-14T09:49:02;18.41;56.56
69770;SHT30;57282;52.514;13.458;2023-03-14T09:51:34;18.40;56.51
69770;SHT30;57282;52.514;13.458;2023-03-14T09:54:04;18.41;56.48
69770;SHT30;57282;52.514;13.458;2023-03-14T09:56:32;18.41;56.52
69770;SHT30;57282;52.514;13.458;2023-03-14T09:59:01;18.41;56.65
69770;SHT30;57282;52.514;13.458;2023-03-14T10:01:30;18.41;56.62
69770;SHT30;57282;52.514;13.458;2023-03-14T10:04:00;18.45;56.54
69770;SHT30;57282;52.514;13.458;2023-03-14T10:06:30;18.43;56.54
69770;SHT30;57282;52.514;13.458;2023-03-14T10:08:57;18.44;56.59
69770;SHT30;57282;52.514;13.458;2023-03-14T10:11:25;18.43;56.40
69770;SHT30;57282;52.514;13.458;2023-03-14T10:14:04;18.41;56.44
69770;SHT30;57282;52.514;13.458;2023-03-14T10:16:33;18.45;56.39
69770;SHT30;57282;52.514;13.458;2023-03-14T10:19:02;18.48;56.44
69770;SHT30;57282;52.514;13.458;2023-03-14T10:21:32;18.45;56.47
69770;SHT30;57282;52.514;13.458;2023-03-14T10:24:19;18.47;56.45
69770;SHT30;57282;52.514;13.458;2023-03-14T10:26:51;18.48;56.40
69770;SHT30;57282;52.514;13.458;2023-03-14T10:29:19;18.49;56.36
69770;SHT30;57282;52.514;13.458;2023-03-14T10:31:50;18.47;56.36
69770;SHT30;57282;52.514;13.458;2023-03-14T10:34:23;18.47;56.26
69770;SHT30;57282;52.514;13.458;2023-03-14T10:36:55;18.49;56.25
69770;SHT30;57282;52.514;13.458;2023-03-14T10:39:28;18.49;56.43
69770;SHT30;57282;52.514;13.458;2023-03-14T10:42:05;18.48;56.29
69770;SHT30;57282;52.514;13.458;2023-03-14T10:44:34;18.49;56.26
69770;SHT30;57282;52.514;13.458;2023-03-14T10:47:03;18.49;56.26
69770;SHT30;57282;52.514;13.458;2023-03-14T10:49:31;18.51;56.21
69770;SHT30;57282;52.514;13.458;2023-03-14T10:52:02;18.48;56.24
69770;SHT30;57282;52.514;13.458;2023-03-14T10:54:38;18.49;56.32
69770;SHT30;57282;52.514;13.458;2023-03-14T10:57:07;18.52;56.30
69770;SHT30;57282;52.514;13.458;2023-03-14T10:59:35;18.49;56.21
69770;SHT30;57282;52.514;13.458;2023-03-14T11:02:10;18.51;56.39
69770;SHT30;57282;52.514;13.458;2023-03-14T11:04:54;18.51;56.41
69770;SHT30;57282;52.514;13.458;2023-03-14T11:07:25;18.52;56.20
69770;SHT30;57282;52.514;13.458;2023-03-14T11:09:56;18.52;56.21
69770;SHT30;57282;52.514;13.458;2023-03-14T11:12:43;18.55;56.13
69770;SHT30;57282;52.514;13.458;2023-03-14T11:15:17;18.51;56.07
69770;SHT30;57282;52.514;13.458;2023-03-14T11:17:52;18.55;55.99
69770;SHT30;57282;52.514;13.458;2023-03-14T11:20:33;18.54;56.08
69770;SHT30;57282;52.514;13.458;2023-03-14T11:23:09;18.55;56.12
69770;SHT30;57282;52.514;13.458;2023-03-14T11:25:43;18.54;56.04
69770;SHT30;57282;52.514;13.458;2023-03-14T11:28:18;18.55;56.01
69770;SHT30;57282;52.514;13.458;2023-03-14T11:30:50;18.54;56.08
69770;SHT30;57282;52.514;13.458;2023-03-14T11:33:21;18.55;55.97
69770;SHT30;57282;52.514;13.458;2023-03-14T11:35:55;18.54;55.95
69770;SHT30;57282;52.514;13.458;2023-03-14T11:38:30;18.57;55.98
69770;SHT30;57282;52.514;13.458;2023-03-14T11:40:58;18.55;55.96
69770;SHT30;57282;52.514;13.458;2023-03-14T11:43:29;18.55;56.04
69770;SHT30;57282;52.514;13.458;2023-03-14T11:46:01;18.57;55.99
69770;SHT30;57282;52.514;13.458;2023-03-14T11:48:35;18.58;55.86
69770;SHT30;57282;52.514;13.458;2023-03-14T11:51:07;18.57;55.88
69770;SHT30;57282;52.514;13.458;2023-03-14T11:53:43;18.55;55.89
69770;SHT30;57282;52.514;13.458;2023-03-14T11:56:18;18.52;55.90
69770;SHT30;57282;52.514;13.458;2023-03-14T11:58:52;18.57;55.88
69770;SHT30;57282;52.514;13.458;2023-03-14T12:01:23;18.57;55.92
69770;SHT30;57282;52.514;13.458;2023-03-14T12:04:00;18.57;55.80
69770;SHT30;57282;52.514;13.458;2023-03-14T12:06:32;18.57;55.84
69770;SHT30;57282;52.514;13.458;2023-03-14T12:09:03;18.57;55.86
69770;SHT30;57282;52.514;13.458;2023-03-14T12:11:36;18.59;55.87
69770;SHT30;57282;52.514;13.458;2023-03-14T12:14:22;18.59;55.88
69770;SHT30;57282;52.514;13.458;2023-03-14T12:16:54;18.62;55.84
69770;SHT30;57282;52.514;13.458;2023-03-14T12:19:37;18.62;55.90
69770;SHT30;57282;52.514;13.458;2023-03-14T12:22:16;18.62;55.83
69770;SHT30;57282;52.514;13.458;2023-03-14T12:24:48;18.64;55.75
69770;SHT30;57282;52.514;13.458;2023-03-14T12:30:26;18.62;55.82
69770;SHT30;57282;52.514;13.458;2023-03-14T12:36:04;18.64;55.75
69770;SHT30;57282;52.514;13.458;2023-03-14T12:38:45;18.61;55.75
69770;SHT30;57282;52.514;13.458;2023-03-14T12:41:16;18.61;55.77
69770;SHT30;57282;52.514;13.458;2023-03-14T12:43:43;18.64;55.74
69770;SHT30;57282;52.514;13.458;2023-03-14T12:46:23;18.64;55.77
69770;SHT30;57282;52.514;13.458;2023-03-14T12:48:54;18.64;55.81
69770;SHT30;57282;52.514;13.458;2023-03-14T12:51:28;18.62;55.79
69770;SHT30;57282;52.514;13.458;2023-03-14T12:57:04;18.62;55.85
69770;SHT30;57282;52.514;13.458;2023-03-14T12:59:33;18.67;55.79
69770;SHT30;57282;52.514;13.458;2023-03-14T13:02:20;18.62;55.79
69770;SHT30;57282;52.514;13.458;2023-03-14T13:04:50;18.64;55.79
69770;SHT30;57282;52.514;13.458;2023-03-14T13:07:34;18.65;55.69
69770;SHT30;57282;52.514;13.458;2023-03-14T13:10:18;18.68;55.73
69770;SHT30;57282;52.514;13.458;2023-03-14T13:12:49;18.65;55.74
69770;SHT30;57282;52.514;13.458;2023-03-14T13:15:20;18.65;55.76
69770;SHT30;57282;52.514;13.458;2023-03-14T13:17:52;18.65;55.74
69770;SHT30;57282;52.514;13.458;2023-03-14T13:20:24;18.62;55.73
69770;SHT30;57282;52.514;13.458;2023-03-14T13:22:54;18.65;55.84
69770;SHT30;57282;52.514;13.458;2023-03-14T13:25:21;18.64;55.80
69770;SHT30;57282;52.514;13.458;2023-03-14T13:27:48;18.67;55.82
69770;SHT30;57282;52.514;13.458;2023-03-14T13:30:19;18.67;55.84
69770;SHT30;57282;52.514;13.458;2023-03-14T13:32:48;18.62;55.88
69770;SHT30;57282;52.514;13.458;2023-03-14T13:35:20;18.65;55.93
69770;SHT30;57282;52.514;13.458;2023-03-14T13:37:52;18.64;55.97
69770;SHT30;57282;52.514;13.458;2023-03-14T13:40:24;18.68;55.94
69770;SHT30;57282;52.514;13.458;2023-03-14T13:43:03;18.65;55.92
69770;SHT30;57282;52.514;13.458;2023-03-14T13:45:31;18.68;55.91
69770;SHT30;57282;52.514;13.458;2023-03-14T13:47:57;18.64;55.97
69770;SHT30;57282;52.514;13.458;2023-03-14T13:50:26;18.67;55.93
69770;SHT30;57282;52.514;13.458;2023-03-14T13:52:56;18.68;55.94
69770;SHT30;57282;52.514;13.458;2023-03-14T13:55:24;18.67;55.93
69770;SHT30;57282;52.514;13.458;2023-03-14T13:57:52;18.67;55.89
69770;SHT30;57282;52.514;13.458;2023-03-14T14:00:22;18.67;55.87
69770;SHT30;57282;52.514;13.458;2023-03-14T14:02:52;18.65;55.89
69770;SHT30;57282;52.514;13.458;2023-03-14T14:05:19;18.65;55.91
69770;SHT30;57282;52.514;13.458;2023-03-14T14:07:49;18.68;55.90
69770;SHT30;57282;52.514;13.458;2023-03-14T14:10:16;18.68;55.88
69770;SHT30;57282;52.514;13.458;2023-03-14T14:12:46;18.69;55.85
69770;SHT30;57282;52.514;13.458;2023-03-14T14:15:19;18.69;55.87
69770;SHT30;57282;52.514;13.458;2023-03-14T14:17:49;18.69;55.80
69770;SHT30;57282;52.514;13.458;2023-03-14T14:20:22;18.69;55.84
69770;SHT30;57282;52.514;13.458;2023-03-14T14:22:51;18.67;55.83
69770;SHT30;57282;52.514;13.458;2023-03-14T14:25:18;18.71;55.85
69770;SHT30;57282;52.514;13.458;2023-03-14T14:27:48;18.71;55.83
69770;SHT30;57282;52.514;13.458;2023-03-14T14:30:39;18.67;55.82
69770;SHT30;57282;52.514;13.458;2023-03-14T14:33:17;18.71;55.87
69770;SHT30;57282;52.514;13.458;2023-03-14T14:35:51;18.68;55.84
69770;SHT30;57282;52.514;13.458;2023-03-14T14:38:20;18.71;55.80
69770;SHT30;57282;52.514;13.458;2023-03-14T14:40:49;18.69;55.81
69770;SHT30;57282;52.514;13.458;2023-03-14T14:43:19;18.67;55.79
69770;SHT30;57282;52.514;13.458;2023-03-14T14:45:49;18.71;55.78
69770;SHT30;57282;52.514;13.458;2023-03-14T14:48:20;18.71;55.74
69770;SHT30;57282;52.514;13.458;2023-03-14T14:50:56;18.71;55.70
69770;SHT30;57282;52.514;13.458;2023-03-14T14:53:28;18.68;55.67
69770;SHT30;57282;52.514;13.458;2023-03-14T14:55:57;18.71;55.69
69770;SHT30;57282;52.514;13.458;2023-03-14T14:58:26;18.71;55.63
69770;SHT30;57282;52.514;13.458;2023-03-14T15:00:56;18.72;55.61
69770;SHT30;57282;52.514;13.458;2023-03-14T15:03:27;18.72;55.71
69770;SHT30;57282;52.514;13.458;2023-03-14T15:05:55;18.72;55.58
69770;SHT30;57282;52.514;13.458;2023-03-14T15:08:22;18.72;55.65
69770;SHT30;57282;52.514;13.458;2023-03-14T15:10:50;18.72;55.68
69770;SHT30;57282;52.514;13.458;2023-03-14T15:13:16;18.72;55.63
69770;SHT30;57282;52.514;13.458;2023-03-14T15:15:44;18.73;55.59
69770;SHT30;57282;52.514;13.458;2023-03-14T15:18:13;18.67;55.70
69770;SHT30;57282;52.514;13.458;2023-03-14T15:20:41;18.69;55.60
69770;SHT30;57282;52.514;13.458;2023-03-14T15:23:10;18.69;55.55
69770;SHT30;57282;52.514;13.458;2023-03-14T15:25:37;18.69;55.48
69770;SHT30;57282;52.514;13.458;2023-03-14T15:28:13;18.71;55.42
69770;SHT30;57282;52.514;13.458;2023-03-14T15:30:41;18.69;55.36
69770;SHT30;57282;52.514;13.458;2023-03-14T15:33:08;18.72;55.40
69770;SHT30;57282;52.514;13.458;2023-03-14T15:35:36;18.71;55.34
69770;SHT30;57282;52.514;13.458;2023-03-14T15:38:03;18.68;55.28